createdAt,value
2019-05-22T00:02:27.398Z,6.30
2019-05-22T00:05:14.218Z,6.40
2019-05-22T00:07:45.651Z,7.10
2019-05-22T00:10:16.766Z,6.28
2019-05-22T00:12:47.420Z,5.92
2019-05-22T00:15:16.853Z,7.10
2019-05-22T00:17:45.711Z,6.72
2019-05-22T00:20:14.755Z,6.92
2019-05-22T00:22:45.556Z,6.90
2019-05-22T00:25:16.292Z,6.55
2019-05-22T00:27:47.143Z,6.70
2019-05-22T00:30:17.099Z,7.15
2019-05-22T00:32:47.583Z,7.20
2019-05-22T00:35:16.891Z,6.60
2019-05-22T00:37:46.174Z,6.97
2019-05-22T00:40:16.683Z,6.85
2019-05-22T00:43:02.950Z,7.47
2019-05-22T00:45:18.219Z,7.37
2019-05-22T00:47:47.081Z,7.10
2019-05-22T00:50:27.003Z,7.42
2019-05-22T00:53:09.938Z,7.37
2019-05-22T00:55:40.879Z,8.20
2019-05-22T00:58:14.911Z,8.08
2019-05-22T01:00:45.752Z,8.28
2019-05-22T01:03:17.021Z,8.00
2019-05-22T01:05:45.988Z,7.85
2019-05-22T01:08:18.003Z,7.40
2019-05-22T01:10:48.386Z,6.80
2019-05-22T01:13:18.972Z,6.28
2019-05-22T01:15:48.693Z,6.60
2019-05-22T01:18:19.236Z,5.72
2019-05-22T01:20:49.945Z,5.30
2019-05-22T01:23:20.998Z,5.25
2019-05-22T01:25:50.053Z,5.00
2019-05-22T01:28:20.151Z,4.83
2019-05-22T01:30:50.943Z,4.58
2019-05-22T01:33:21.842Z,3.85
2019-05-22T01:35:56.460Z,4.25
2019-05-22T01:38:26.149Z,4.47
2019-05-22T01:41:15.015Z,3.60
2019-05-22T01:43:44.497Z,3.50
2019-05-22T01:46:15.127Z,3.67
2019-05-22T01:48:45.582Z,3.80
2019-05-22T01:51:16.448Z,3.70
2019-05-22T01:53:46.953Z,3.87
2019-05-22T01:56:17.183Z,3.72
2019-05-22T01:58:46.541Z,4.00
2019-05-22T02:01:20.786Z,3.70
2019-05-22T02:03:51.443Z,3.83
2019-05-22T02:06:21.960Z,3.67
2019-05-22T02:08:53.704Z,3.80
2019-05-22T02:11:23.593Z,3.90
2019-05-22T02:13:58.272Z,3.55
2019-05-22T02:16:28.112Z,3.90
2019-05-22T02:18:57.098Z,3.75
2019-05-22T02:21:27.252Z,5.03
2019-05-22T02:23:56.606Z,4.00
2019-05-22T02:26:25.669Z,4.58
2019-05-22T02:28:55.652Z,4.30
2019-05-22T02:31:26.134Z,4.40
2019-05-22T02:33:59.440Z,4.95
2019-05-22T02:36:28.856Z,3.80
2019-05-22T02:38:58.493Z,3.98
2019-05-22T02:41:29.162Z,4.72
2019-05-22T02:43:58.368Z,3.98
2019-05-22T02:46:27.262Z,3.75
2019-05-22T02:48:57.956Z,3.75
2019-05-22T02:51:27.528Z,4.28
2019-05-22T02:53:58.255Z,3.65
2019-05-22T02:56:27.086Z,3.72
2019-05-22T02:58:55.988Z,3.80
2019-05-22T03:01:25.229Z,3.83
2019-05-22T03:03:54.478Z,4.35
2019-05-22T03:06:23.683Z,4.80
2019-05-22T03:09:00.042Z,4.28
2019-05-22T03:11:35.172Z,4.25
2019-05-22T03:14:04.462Z,4.30
2019-05-22T03:16:52.820Z,3.80
2019-05-22T03:19:28.061Z,3.75
2019-05-22T03:21:57.181Z,4.22
2019-05-22T03:24:26.282Z,4.08
2019-05-22T03:26:56.117Z,3.60
2019-05-22T03:29:30.997Z,4.42
2019-05-22T03:32:00.282Z,4.40
2019-05-22T03:34:29.366Z,4.28
2019-05-22T03:36:58.485Z,4.45
2019-05-22T03:39:28.106Z,4.05
2019-05-22T03:41:57.060Z,4.30
2019-05-22T03:44:26.624Z,4.20
2019-05-22T03:46:59.272Z,4.65
2019-05-22T03:49:30.627Z,4.62
2019-05-22T03:51:57.868Z,4.37
2019-05-22T03:54:27.166Z,5.80
2019-05-22T03:56:56.338Z,4.45
2019-05-22T03:59:25.809Z,4.22
2019-05-22T04:01:55.403Z,4.50
2019-05-22T04:04:35.700Z,4.72
2019-05-22T04:07:06.617Z,5.00
2019-05-22T04:09:37.412Z,4.97
2019-05-22T04:12:06.842Z,4.45
2019-05-22T04:14:37.918Z,4.70
2019-05-22T04:17:08.176Z,4.80
2019-05-22T04:19:49.121Z,3.90
2019-05-22T04:22:09.689Z,4.40
2019-05-22T04:24:41.329Z,4.30
2019-05-22T04:27:12.243Z,3.98
2019-05-22T04:29:42.539Z,4.00
2019-05-22T04:32:32.916Z,4.25
2019-05-22T04:35:03.244Z,6.50
2019-05-22T04:37:32.275Z,4.90
2019-05-22T04:40:26.520Z,4.50
2019-05-22T04:42:59.062Z,4.78
2019-05-22T04:45:28.746Z,4.78
2019-05-22T04:47:58.973Z,4.40
2019-05-22T04:50:29.308Z,4.65
2019-05-22T04:52:59.380Z,4.85
2019-05-22T04:55:30.125Z,5.33
2019-05-22T04:58:11.145Z,4.83
2019-05-22T05:00:40.109Z,4.70
2019-05-22T05:03:09.481Z,5.37
2019-05-22T05:05:42.765Z,4.37
2019-05-22T05:08:12.602Z,4.83
2019-05-22T05:10:42.036Z,4.70
2019-05-22T05:13:11.118Z,4.40
2019-05-22T05:15:40.265Z,4.58
2019-05-22T05:18:09.389Z,4.45
2019-05-22T05:20:38.595Z,4.55
2019-05-22T05:23:07.515Z,4.42
2019-05-22T05:25:37.025Z,5.00
2019-05-22T05:28:07.653Z,4.60
2019-05-22T05:30:36.865Z,4.97
2019-05-22T05:33:06.571Z,5.35
2019-05-22T05:35:36.181Z,4.17
2019-05-22T05:38:05.756Z,3.80
2019-05-22T05:40:42.627Z,4.35
2019-05-22T05:43:12.520Z,4.58
2019-05-22T05:45:42.340Z,4.15
2019-05-22T05:48:23.770Z,4.20
2019-05-22T05:53:40.279Z,4.22
2019-05-22T05:56:15.363Z,4.45
2019-05-22T05:58:44.679Z,4.47
2019-05-22T06:01:19.811Z,4.75
2019-05-22T06:03:49.022Z,4.72
2019-05-22T06:06:28.528Z,3.83
2019-05-22T06:09:00.794Z,4.35
2019-05-22T06:11:39.573Z,4.47
2019-05-22T06:14:10.481Z,4.30
2019-05-22T06:16:59.238Z,4.50
2019-05-22T06:19:28.909Z,4.33
2019-05-22T06:21:58.614Z,4.00
2019-05-22T06:24:38.503Z,3.47
2019-05-22T06:27:16.069Z,4.15
2019-05-22T06:30:06.404Z,3.95
2019-05-22T06:33:09.092Z,3.60
2019-05-22T06:35:39.132Z,4.40
2019-05-22T06:38:23.295Z,3.85
2019-05-22T06:40:52.599Z,4.70
2019-05-22T06:43:28.902Z,3.92
2019-05-22T06:45:57.888Z,4.35
2019-05-22T06:48:27.031Z,4.45
2019-05-22T06:50:56.212Z,4.05
2019-05-22T06:53:25.380Z,4.65
2019-05-22T06:55:54.485Z,4.42
2019-05-22T06:58:23.728Z,4.58
2019-05-22T07:00:52.955Z,3.87
2019-05-22T07:03:22.415Z,3.87
2019-05-22T07:05:52.301Z,4.37
2019-05-22T07:08:22.295Z,4.00
2019-05-22T07:10:51.422Z,3.90
2019-05-22T07:13:21.643Z,4.40
2019-05-22T07:15:52.833Z,4.90
2019-05-22T07:18:22.902Z,4.50
2019-05-22T07:20:53.124Z,3.67
2019-05-22T07:23:23.999Z,4.40
2019-05-22T07:25:53.199Z,4.00
2019-05-22T07:28:23.730Z,4.35
2019-05-22T07:30:52.893Z,4.62
2019-05-22T07:33:23.705Z,3.50
2019-05-22T07:36:08.612Z,3.75
2019-05-22T07:38:23.706Z,3.45
2019-05-22T07:40:53.302Z,4.05
2019-05-22T07:43:23.013Z,3.87
2019-05-22T07:45:53.059Z,3.67
2019-05-22T07:48:23.905Z,4.65
2019-05-22T07:50:54.545Z,4.35
2019-05-22T07:53:24.203Z,4.77
2019-05-22T07:55:53.509Z,4.35
2019-05-22T07:58:23.207Z,3.95
2019-05-22T08:00:53.787Z,4.40
2019-05-22T08:03:23.745Z,4.15
2019-05-22T08:05:53.793Z,4.42
2019-05-22T08:08:24.087Z,4.17
2019-05-22T08:10:54.039Z,4.60
2019-05-22T08:13:23.603Z,5.62
2019-05-22T08:15:52.922Z,6.00
2019-05-22T08:18:22.225Z,5.70
2019-05-22T08:20:51.311Z,6.55
2019-05-22T08:23:20.481Z,5.47
2019-05-22T08:25:49.505Z,4.70
2019-05-22T08:28:19.348Z,4.67
2019-05-22T08:30:48.801Z,4.28
2019-05-22T08:33:17.768Z,4.75
2019-05-22T08:35:47.199Z,4.37
2019-05-22T08:38:16.049Z,4.33
2019-05-22T08:40:45.680Z,4.25
2019-05-22T08:43:14.890Z,4.25
2019-05-22T08:45:43.876Z,4.70
2019-05-22T08:48:13.788Z,5.60
2019-05-22T08:50:44.681Z,6.40
2019-05-22T08:53:15.231Z,6.12
2019-05-22T08:55:44.888Z,4.40
2019-05-22T09:11:30.030Z,4.72
2019-05-22T09:13:58.985Z,4.95
2019-05-22T09:16:28.229Z,4.92
2019-05-22T09:18:57.335Z,5.22
2019-05-22T09:21:26.718Z,4.97
2019-05-22T09:23:59.655Z,5.42
2019-05-22T09:26:30.066Z,5.35
2019-05-22T09:28:59.038Z,5.10
2019-05-22T09:31:29.073Z,8.08
2019-05-22T09:33:58.246Z,5.17
2019-05-22T09:36:27.340Z,5.17
2019-05-22T09:38:56.754Z,5.40
2019-05-22T09:41:26.008Z,6.67
2019-05-22T09:43:55.640Z,5.10
2019-05-22T09:46:26.217Z,4.50
2019-05-22T09:48:57.146Z,5.33
2019-05-22T09:51:26.036Z,5.35
2019-05-22T09:53:55.410Z,5.78
2019-05-22T09:56:25.306Z,5.67
2019-05-22T09:58:54.329Z,4.85
2019-05-22T10:01:23.706Z,4.50
2019-05-22T10:03:53.259Z,5.40
2019-05-22T10:06:22.475Z,5.22
2019-05-22T10:08:51.630Z,5.45
2019-05-22T10:11:21.112Z,5.87
2019-05-22T10:13:50.699Z,5.80
2019-05-22T10:16:20.123Z,5.00
2019-05-22T10:18:52.951Z,5.58
2019-05-22T10:21:21.645Z,6.03
2019-05-22T10:23:51.074Z,5.55
2019-05-22T10:26:21.313Z,5.75
2019-05-22T10:28:50.641Z,5.58
2019-05-22T10:31:21.842Z,5.45
2019-05-22T10:33:52.232Z,5.72
2019-05-22T10:36:21.635Z,6.35
2019-05-22T10:38:50.943Z,5.65
2019-05-22T10:41:20.153Z,5.78
2019-05-22T10:43:49.717Z,6.42
2019-05-22T10:46:18.743Z,5.67
2019-05-22T10:48:48.071Z,5.20
2019-05-22T10:51:17.282Z,5.33
2019-05-22T10:53:46.506Z,5.55
2019-05-22T10:56:15.337Z,5.75
2019-05-22T10:58:44.421Z,6.30
2019-05-22T11:01:13.664Z,5.25
2019-05-22T11:03:42.990Z,5.25
2019-05-22T11:06:12.488Z,5.55
2019-05-22T11:08:41.736Z,5.37
2019-05-22T11:11:11.051Z,5.92
2019-05-22T11:13:40.895Z,13.50
2019-05-22T11:16:10.541Z,5.45
2019-05-22T11:18:39.960Z,5.08
2019-05-22T11:21:09.774Z,6.00
2019-05-22T11:23:51.318Z,5.53
2019-05-22T11:26:10.185Z,5.45
2019-05-22T11:28:40.015Z,5.42
2019-05-22T11:31:09.803Z,5.53
2019-05-22T11:33:38.783Z,5.45
2019-05-22T11:36:08.002Z,5.70
2019-05-22T11:38:37.160Z,5.20
2019-05-22T11:41:06.996Z,6.67
2019-05-22T11:43:36.354Z,5.92
2019-05-22T11:46:06.131Z,4.70
2019-05-22T11:48:35.701Z,3.80
2019-05-22T11:51:04.940Z,2.95
2019-05-22T11:53:34.100Z,3.90
2019-05-22T11:56:03.141Z,3.10
2019-05-22T11:58:32.548Z,3.75
2019-05-22T12:01:02.037Z,4.72
2019-05-22T12:03:31.865Z,4.58
2019-05-22T12:06:01.076Z,3.98
2019-05-22T12:08:30.465Z,4.35
2019-05-22T12:11:00.067Z,3.30
2019-05-22T12:13:29.169Z,3.30
2019-05-22T12:15:58.662Z,3.37
2019-05-22T12:18:28.708Z,3.05
2019-05-22T12:20:57.917Z,3.55
2019-05-22T12:23:27.663Z,5.22
2019-05-22T12:26:04.372Z,8.28
2019-05-22T12:28:33.775Z,3.87
2019-05-22T12:31:03.274Z,5.12
2019-05-22T12:33:32.928Z,3.20
2019-05-22T12:36:02.352Z,3.50
2019-05-22T12:38:33.437Z,3.72
2019-05-22T12:41:03.124Z,3.47
2019-05-22T12:43:33.044Z,2.70
2019-05-22T12:46:02.384Z,3.10
2019-05-22T12:48:32.394Z,4.75
2019-05-22T12:51:01.959Z,3.98
2019-05-22T12:53:31.769Z,4.12
2019-05-22T12:56:01.141Z,3.50
2019-05-22T12:58:30.957Z,3.25
2019-05-22T13:01:00.406Z,3.33
2019-05-22T13:03:30.342Z,2.72
2019-05-22T13:05:59.636Z,2.87
2019-05-22T13:08:29.354Z,3.67
2019-05-22T13:10:58.857Z,2.80
2019-05-22T13:13:28.210Z,4.80
2019-05-22T13:15:58.213Z,5.80
2019-05-22T13:18:27.341Z,6.75
2019-05-22T13:20:57.582Z,4.83
2019-05-22T13:23:31.036Z,4.40
2019-05-22T13:26:00.373Z,4.03
2019-05-22T13:28:30.084Z,4.03
2019-05-22T13:30:59.673Z,5.12
2019-05-22T13:33:29.484Z,5.33
2019-05-22T13:35:58.820Z,5.00
2019-05-22T13:38:28.637Z,4.80
2019-05-22T13:40:57.833Z,5.42
2019-05-22T13:43:27.792Z,5.22
2019-05-22T13:45:57.208Z,6.40
2019-05-22T13:48:26.630Z,7.17
2019-05-22T13:50:56.651Z,5.15
2019-05-22T13:53:26.154Z,5.60
2019-05-22T13:55:55.723Z,5.08
2019-05-22T13:58:24.945Z,4.92
2019-05-22T14:00:54.242Z,5.60
2019-05-22T14:03:24.036Z,5.20
2019-05-22T14:05:53.582Z,6.28
2019-05-22T14:08:23.233Z,5.47
2019-05-22T14:10:53.283Z,5.90
2019-05-22T14:13:23.498Z,5.65
2019-05-22T14:15:56.867Z,6.00
2019-05-22T14:18:23.384Z,5.60
2019-05-22T14:20:52.933Z,9.93
2019-05-22T14:23:21.980Z,6.62
2019-05-22T14:25:51.835Z,5.58
2019-05-22T14:28:21.909Z,5.42
2019-05-22T14:30:51.596Z,6.10
2019-05-22T14:33:20.869Z,7.03
2019-05-22T14:35:51.798Z,6.92
2019-05-22T14:38:20.879Z,6.45
2019-05-22T14:40:50.085Z,6.97
2019-05-22T14:43:19.154Z,7.40
2019-05-22T14:45:48.917Z,8.05
2019-05-22T14:48:18.229Z,7.40
2019-05-22T14:50:47.638Z,7.67
2019-05-22T14:53:17.127Z,7.20
2019-05-22T14:55:46.571Z,7.58
2019-05-22T14:58:15.980Z,7.28
2019-05-22T15:00:45.251Z,6.47
2019-05-22T15:03:15.152Z,6.85
2019-05-22T15:05:44.344Z,7.33
2019-05-22T15:08:13.728Z,7.22
2019-05-22T15:10:43.133Z,6.17
2019-05-22T15:13:12.443Z,6.40
2019-05-22T15:15:41.746Z,6.10
2019-05-22T15:18:11.130Z,7.62
2019-05-22T15:20:47.574Z,9.35
2019-05-22T15:23:17.197Z,8.38
2019-05-22T15:25:46.433Z,8.58
2019-05-22T15:28:16.303Z,8.00
2019-05-22T15:30:45.702Z,8.85
2019-05-22T15:33:15.036Z,7.67
2019-05-22T15:35:44.474Z,6.37
2019-05-22T15:38:13.976Z,6.90
2019-05-22T15:40:44.968Z,7.20
2019-05-22T15:43:14.829Z,7.80
2019-05-22T15:45:44.206Z,8.18
2019-05-22T15:48:16.432Z,7.90
2019-05-22T15:50:47.310Z,8.58
2019-05-22T15:53:16.626Z,8.70
2019-05-22T15:55:46.483Z,9.43
2019-05-22T15:58:17.439Z,8.83
2019-05-22T16:00:47.781Z,8.93
2019-05-22T16:03:23.212Z,10.25
2019-05-22T16:05:53.034Z,9.65
2019-05-22T16:08:22.756Z,9.45
2019-05-22T16:10:52.845Z,10.75
2019-05-22T16:38:52.791Z,16.20
2019-05-22T16:41:22.779Z,14.07
2019-05-22T16:43:52.138Z,14.58
2019-05-22T16:46:22.188Z,14.53
2019-05-22T16:48:51.722Z,16.05
2019-05-22T16:51:21.863Z,14.20
2019-05-22T16:53:56.172Z,15.70
2019-05-22T16:56:25.741Z,15.18
2019-05-22T16:58:55.263Z,15.10
2019-05-22T17:01:24.436Z,15.93
2019-05-22T17:03:54.214Z,14.40
2019-05-22T17:06:23.962Z,15.53
2019-05-22T17:08:53.634Z,14.43
2019-05-22T17:11:22.896Z,16.00
2019-05-22T17:13:52.562Z,14.65
2019-05-22T17:16:22.187Z,16.37
2019-05-22T17:18:51.752Z,14.35
2019-05-22T17:21:20.907Z,15.15
2019-05-22T17:23:50.072Z,14.43
2019-05-22T17:26:19.579Z,12.03
2019-05-22T17:28:49.019Z,11.60
2019-05-22T17:31:18.559Z,12.25
2019-05-22T17:33:47.861Z,12.82
2019-05-22T17:36:18.415Z,12.00
2019-05-22T17:38:47.896Z,11.08
2019-05-22T17:41:18.782Z,11.83
2019-05-22T17:43:48.298Z,11.35
2019-05-22T17:46:18.011Z,10.93
2019-05-22T17:48:47.716Z,10.85
2019-05-22T17:51:17.424Z,10.93
2019-05-22T17:53:46.929Z,11.80
2019-05-22T17:56:35.815Z,11.85
2019-05-22T17:59:05.380Z,11.95
2019-05-22T18:01:35.545Z,13.30
2019-05-22T18:04:05.601Z,12.40
2019-05-22T18:06:35.037Z,11.90
2019-05-22T18:09:05.237Z,12.47
2019-05-22T18:11:34.497Z,13.50
2019-05-22T18:14:05.305Z,12.47
2019-05-22T18:16:35.656Z,11.83
2019-05-22T18:19:05.779Z,13.22
2019-05-22T18:21:35.947Z,13.60
2019-05-22T18:24:05.268Z,13.13
2019-05-22T18:26:34.976Z,14.23
2019-05-22T18:29:04.709Z,13.45
2019-05-22T18:31:34.092Z,15.15
2019-05-22T18:34:03.548Z,14.73
2019-05-22T18:36:32.732Z,13.55
2019-05-22T18:39:01.978Z,14.58
2019-05-22T18:41:31.171Z,14.28
2019-05-22T18:44:00.071Z,13.28
2019-05-22T18:46:29.822Z,24.45
2019-05-22T18:48:58.883Z,18.92
2019-05-22T18:51:28.276Z,16.23
2019-05-22T18:53:59.115Z,15.15
2019-05-22T18:56:28.558Z,14.43
2019-05-22T18:58:57.618Z,14.63
2019-05-22T19:01:27.497Z,16.90
2019-05-22T19:03:56.438Z,15.58
2019-05-22T19:06:30.229Z,15.40
2019-05-22T19:08:56.440Z,15.20
2019-05-22T19:11:25.760Z,15.70
2019-05-22T19:13:55.101Z,16.85
2019-05-22T19:16:24.567Z,16.27
2019-05-22T19:18:54.159Z,17.17
2019-05-22T19:21:23.390Z,16.37
2019-05-22T19:23:52.503Z,17.55
2019-05-22T19:26:21.958Z,15.83
2019-05-22T19:28:51.836Z,17.62
2019-05-22T19:31:21.415Z,16.07
2019-05-22T19:33:51.013Z,17.17
2019-05-22T19:36:20.435Z,18.85
2019-05-22T19:38:49.601Z,16.30
2019-05-22T19:41:18.995Z,18.25
2019-05-22T19:43:48.220Z,17.75
2019-05-22T19:46:18.039Z,16.07
2019-05-22T19:48:47.352Z,14.55
2019-05-22T19:51:17.626Z,15.72
2019-05-22T19:53:48.189Z,16.35
2019-05-22T19:56:18.129Z,15.83
2019-05-22T19:58:47.330Z,16.23
2019-05-22T20:01:16.588Z,17.40
2019-05-22T20:03:45.917Z,15.75
2019-05-22T20:06:15.280Z,14.98
2019-05-22T20:08:45.400Z,16.90
2019-05-22T20:11:14.468Z,56.58
2019-05-22T20:13:43.985Z,14.45
2019-05-22T20:16:13.477Z,14.65
2019-05-22T20:18:43.230Z,16.10
2019-05-22T20:21:12.698Z,15.95
2019-05-22T20:23:42.780Z,16.67
2019-05-22T20:26:11.975Z,14.28
2019-05-22T20:28:41.472Z,14.60
2019-05-22T20:31:11.196Z,16.15
2019-05-22T20:33:40.799Z,16.15
2019-05-22T20:36:10.657Z,14.58
2019-05-22T20:38:40.009Z,15.90
2019-05-22T20:41:09.558Z,17.62
2019-05-22T20:43:40.149Z,15.55
2019-05-22T20:46:09.717Z,15.10
2019-05-22T20:48:38.811Z,14.45
2019-05-22T20:51:09.556Z,16.95
2019-05-22T20:53:52.729Z,19.20
2019-05-22T20:56:11.590Z,16.73
2019-05-22T20:58:41.201Z,28.27
2019-05-22T21:01:11.525Z,22.90
2019-05-22T21:03:41.716Z,18.07
2019-05-22T21:06:13.563Z,23.62
2019-05-22T21:08:43.583Z,25.32
2019-05-22T21:11:13.204Z,35.52
2019-05-22T21:13:42.440Z,33.67
2019-05-22T21:16:12.474Z,24.67
2019-05-22T21:18:43.054Z,29.82
2019-05-22T21:21:13.854Z,30.75
2019-05-22T21:23:43.041Z,26.95
2019-05-22T21:26:12.914Z,25.25
2019-05-22T21:28:42.734Z,22.87
2019-05-22T21:31:13.499Z,22.42
2019-05-22T21:33:43.014Z,23.02
2019-05-22T21:36:12.861Z,22.50
2019-05-22T21:38:41.855Z,23.45
2019-05-22T21:41:11.377Z,21.93
2019-05-22T21:43:41.232Z,21.95
2019-05-22T21:46:10.412Z,21.35
2019-05-22T21:48:40.181Z,23.18
2019-05-22T21:51:09.220Z,21.15
2019-05-22T21:53:38.340Z,20.80
2019-05-22T21:56:07.180Z,17.20
2019-05-22T21:58:36.704Z,19.60
2019-05-22T22:01:10.336Z,17.90
2019-05-22T22:03:40.973Z,19.12
2019-05-22T22:06:10.114Z,25.12
2019-05-22T22:08:39.240Z,22.07
2019-05-22T22:11:09.147Z,26.12
2019-05-22T22:13:39.694Z,25.23
2019-05-22T22:16:09.553Z,27.20
2019-05-22T22:18:40.301Z,24.77
2019-05-22T22:21:09.934Z,26.95
2019-05-22T22:23:40.748Z,24.40
2019-05-22T22:26:24.915Z,23.12
2019-05-22T22:28:42.212Z,21.70
2019-05-22T22:31:12.965Z,26.42
2019-05-22T22:33:42.461Z,19.70
2019-05-22T22:36:11.463Z,33.83
2019-05-22T22:38:42.214Z,16.55
2019-05-22T22:41:12.578Z,14.60
2019-05-22T22:43:43.440Z,14.43
2019-05-22T22:46:27.934Z,15.23
2019-05-22T22:48:58.041Z,14.68
2019-05-22T22:51:27.735Z,15.43
2019-05-22T22:53:57.482Z,16.57
2019-05-22T22:56:27.462Z,17.00
2019-05-22T22:58:57.132Z,17.20
2019-05-22T23:01:28.402Z,16.85
2019-05-22T23:03:58.693Z,15.93
2019-05-22T23:06:28.346Z,16.15
2019-05-22T23:08:57.593Z,17.15
2019-05-22T23:11:27.853Z,16.30
2019-05-22T23:13:57.666Z,19.23
2019-05-22T23:16:27.782Z,18.50
2019-05-22T23:19:16.173Z,15.65
2019-05-22T23:21:45.711Z,16.12
2019-05-22T23:24:16.716Z,15.80
2019-05-22T23:26:47.293Z,18.82
2019-05-22T23:29:18.125Z,20.12
2019-05-22T23:31:48.863Z,15.00
2019-05-22T23:34:18.794Z,14.87
2019-05-22T23:36:48.722Z,18.37
2019-05-22T23:39:19.001Z,19.27
2019-05-22T23:41:48.375Z,14.85
2019-05-22T23:44:18.926Z,13.53
2019-05-22T23:46:47.982Z,17.82
2019-05-22T23:49:17.278Z,16.45
2019-05-22T23:51:47.160Z,16.87
2019-05-22T23:54:17.284Z,18.17
2019-05-22T23:56:46.894Z,18.55
2019-05-22T23:59:17.067Z,15.58
